Flight Track Log - Related Links

Times and Time Zones

All times are in EST time to prevent confusion due to time zone crossing. See the SKW6238 flight status page for this flight to view local times or setup timezone preferences in your user account.

Time Position Orientation Groundspeed Altitude Reporting Facility
EST Latitude Longitude Course Direction KTS MPH feet Rate Location/Type
Sat 04:15:02 PM 40.9717 -124.1658 238° Southwest 158 182 3,400  Level Oakland Center
Sat 04:16:03 PM 40.9231 -124.1672 181° South 170 196 5,200 1,623 Climbing Seattle Center
Sat 04:17:00 PM 40.6460 -123.9290 158° South  Level Estimated
Sat 04:17:04 PM 40.8708 -124.1386 157° South 189 217 6,700  Level Seattle Center
Sat 04:18:00 PM 40.5796 -123.8933 158° South  Level Estimated
Sat 04:18:05 PM 40.8156 -124.1117 160° South 204 235 8,500  Level Seattle Center
Sat 04:19:00 PM 40.5132 -123.8577 158° South  Level Estimated
Sat 04:19:06 PM 40.7575 -124.0869 162° South 212 244 10,300  Level Seattle Center
Sat 04:20:06 PM 40.6972 -124.0586 160° South 221 254 11,800 1,488 Climbing Seattle Center
Sat 04:21:07 PM 40.6300 -124.0292 162° South 236 272 13,300 1,574 Climbing Seattle Center
Sat 04:22:08 PM 40.5625 -123.9975 160° South 251 289 15,000 1,623 Climbing Seattle Center
Sat 04:23:09 PM 40.4947 -123.9658 160° South 256 295 16,600 1,488 Climbing Seattle Center
Sat 04:24:09 PM 40.4253 -123.9317 159° South 263 303 18,000 1,537 Climbing Seattle Center
Sat 04:25:10 PM 40.3442 -123.8942 161° South 258 297 19,700 1,333 Climbing Seattle Center
Sat 04:26:15 PM 40.2747 -123.8603 160° South 259 298 20,800 898 Climbing Oakland Center
Sat 04:27:17 PM 40.2028 -123.8283 161° South 272 313 21,600 878 Climbing Oakland Center
Sat 04:28:18 PM 40.1297 -123.7942 160° South 280 322 22,600 934 Climbing Oakland Center
Sat 04:29:19 PM 40.0572 -123.7617 161° South 277 319 23,500 878 Climbing Oakland Center
Sat 04:30:21 PM 39.9856 -123.7275 160° South 274 315 24,400 732 Climbing Oakland Center
Sat 04:31:22 PM 39.9131 -123.6933 160° South 279 321 25,000 295 Climbing Oakland Center
Sat 04:32:23 PM 39.8342 -123.6572 161° South 298 343 25,000  Level Oakland Center
Sat 04:33:24 PM 39.7358 -123.6117 160° South 313 360 25,000  Level Oakland Center
Sat 04:34:25 PM 39.6517 -123.5739 161° South 318 366 25,000  Level Oakland Center
Sat 04:35:27 PM 39.5689 -123.5342 160° South 317 365 25,000  Level Oakland Center
Sat 04:36:29 PM 39.4858 -123.4958 160° South 318 366 25,000  Level Oakland Center
Sat 04:37:29 PM 39.4081 -123.4617 161° South 319 367 25,000  Level Oakland Center
Sat 04:38:30 PM 39.3233 -123.4239 161° South 322 371 25,000  Level Oakland Center
Sat 04:39:32 PM 39.2208 -123.3764 160° South 326 375 25,000  Level Oakland Center
Sat 04:40:33 PM 39.1347 -123.3375 161° South 328 377 25,000 -295 Level Oakland Center
Sat 04:41:34 PM 39.0469 -123.2964 160° South 334 384 24,400 -492 Descending Oakland Center
Sat 04:42:35 PM 38.9514 -123.2542 161° South 358 412 24,000 -195 Descending Oakland Center
Sat 04:43:37 PM 38.8597 -123.2125 161° South 353 406 24,000  Level Oakland Center
Sat 04:44:38 PM 38.7678 -123.1714 161° South 350 403 24,000  Level Oakland Center
Sat 04:45:39 PM 38.6764 -123.1303 161° South 349 402 24,000 -829 Level Oakland Center
Sat 04:46:41 PM 38.5856 -123.0931 162° South 347 399 22,300 -2,049 Descending Oakland Center
Sat 04:47:42 PM 38.5019 -123.0536 160° South 326 375 19,800 -3,295 Descending Oakland Center
Sat 04:48:43 PM 38.3994 -123.0072 160° South 326 375 15,600 -3,756 Descending Oakland Center
Sat 04:49:45 PM 38.3144 -122.9706 161° South 325 374 12,100 -3,171 Descending Oakland Center
Sat 04:50:46 PM 38.2333 -122.9342 161° South 315 362 9,100 -2,390 Descending Oakland Center
Sat 04:51:48 PM 38.1611 -122.9033 161° South 289 333 7,200 -1,024 Descending Oakland Center
Sat 04:52:49 PM 38.0944 -122.8736 161° South 265 305 7,000 -98 Descending Oakland Center
Sat 04:53:50 PM 38.0297 -122.8456 161° South 256 295 7,000  Level Oakland Center
Sat 04:54:51 PM 37.9653 -122.8156 160° South 251 289 7,000  Level Oakland Center
Sat 04:55:53 PM 37.8886 -122.7831 162° South 247 284 7,000  Level Oakland Center
Sat 04:56:54 PM 37.8244 -122.7564 162° South 246 283 7,000 -344 Level Oakland Center
Sat 04:57:55 PM 37.7597 -122.7281 161° South 248 285 6,300 -878 Descending Oakland Center
Sat 04:58:57 PM 37.6903 -122.7000 162° South 258 297 5,200 -1,073 Descending Oakland Center
Sat 04:59:58 PM 37.6314 -122.6542 148° Southeast 261 300 4,100 -590 Descending Oakland Center
Sat 05:00:59 PM 37.6050 -122.5756 113° Southeast 251 289 4,000 -49 Descending Oakland Center
Sat 05:02:01 PM 37.5803 -122.4989 112° Southeast 242 278 4,000  Level Oakland Center
Sat 05:03:02 PM 37.5522 -122.4094 112° Southeast 235 270 4,000  Level Oakland Center
Sat 05:04:03 PM 37.5264 -122.3378 114° Southeast 231 266 4,000  Level Oakland Center
Sat 05:05:04 PM 37.4972 -122.2800 122° Southeast 212 244 4,000  Level Oakland Center
Sat 05:06:06 PM 37.4672 -122.2214 123° Southeast 204 235 4,000  Level Oakland Center
Sat 05:07:07 PM 37.4581 -122.1594 101° East 211 243 4,000  Level Oakland Center
Sat 05:08:08 PM 37.5064 -122.1669 353° North 203 234 4,000 -246 Level Oakland Center
Sat 05:09:09 PM 37.5475 -122.2044 324° Northwest 191 220 3,500 -780 Descending Oakland Center
Sat 05:10:11 PM 37.5689 -122.2578 297° West 176 203 2,400 -1,122 Descending Oakland Center
Sat 05:11:12 PM 37.5853 -122.2975 298° West 153 176 1,200 -885 Descending Oakland Center
Sat 05:12:13 PM 37.6014 -122.3358 298° West 135 155 600 -443 Descending Oakland Center
Sat 05:13:14 PM 37.6211 -122.3822 298° West 132 152 300 -295 Descending Oakland Center

Login

Don't have an account? Register now (free) for customized features, flight alerts, and more!